sensor_id;sensor_type;location;lat;lon;timestamp;P1;durP1;ratioP1;P2;durP2;ratioP2
59571;SDS011;70118;45.638;11.714;2023-06-10T00:01:42;6.82;;;4.20;;
59571;SDS011;70118;45.638;11.714;2023-06-10T00:04:15;7.63;;;4.10;;
59571;SDS011;70118;45.638;11.714;2023-06-10T00:06:42;7.43;;;4.20;;
59571;SDS011;70118;45.638;11.714;2023-06-10T00:09:09;5.60;;;3.58;;
59571;SDS011;70118;45.638;11.714;2023-06-10T00:11:36;7.25;;;3.10;;
59571;SDS011;70118;45.638;11.714;2023-06-10T00:14:03;5.22;;;3.45;;
59571;SDS011;70118;45.638;11.714;2023-06-10T00:16:29;6.20;;;3.63;;
59571;SDS011;70118;45.638;11.714;2023-06-10T00:18:55;5.87;;;3.63;;
59571;SDS011;70118;45.638;11.714;2023-06-10T00:21:29;5.75;;;3.80;;
59571;SDS011;70118;45.638;11.714;2023-06-10T00:24:06;4.95;;;3.00;;
59571;SDS011;70118;45.638;11.714;2023-06-10T00:26:37;5.68;;;3.17;;
59571;SDS011;70118;45.638;11.714;2023-06-10T00:29:04;5.60;;;3.08;;
59571;SDS011;70118;45.638;11.714;2023-06-10T00:31:30;5.43;;;2.90;;
59571;SDS011;70118;45.638;11.714;2023-06-10T00:33:57;6.10;;;3.65;;
59571;SDS011;70118;45.638;11.714;2023-06-10T00:36:24;5.97;;;3.10;;
59571;SDS011;70118;45.638;11.714;2023-06-10T00:38:50;5.25;;;2.80;;
59571;SDS011;70118;45.638;11.714;2023-06-10T00:41:16;4.70;;;2.67;;
59571;SDS011;70118;45.638;11.714;2023-06-10T00:43:42;5.70;;;3.40;;
59571;SDS011;70118;45.638;11.714;2023-06-10T00:46:08;5.22;;;3.13;;
59571;SDS011;70118;45.638;11.714;2023-06-10T00:48:37;5.90;;;3.30;;
59571;SDS011;70118;45.638;11.714;2023-06-10T00:51:04;5.57;;;2.85;;
59571;SDS011;70118;45.638;11.714;2023-06-10T00:53:31;5.75;;;3.15;;
59571;SDS011;70118;45.638;11.714;2023-06-10T00:55:58;5.23;;;3.33;;
59571;SDS011;70118;45.638;11.714;2023-06-10T00:58:25;6.57;;;3.47;;
59571;SDS011;70118;45.638;11.714;2023-06-10T01:00:52;5.97;;;2.90;;
59571;SDS011;70118;45.638;11.714;2023-06-10T01:03:19;6.28;;;3.28;;
59571;SDS011;70118;45.638;11.714;2023-06-10T01:05:46;4.90;;;3.00;;
59571;SDS011;70118;45.638;11.714;2023-06-10T01:08:28;5.72;;;2.95;;
59571;SDS011;70118;45.638;11.714;2023-06-10T01:11:03;4.78;;;2.75;;
59571;SDS011;70118;45.638;11.714;2023-06-10T01:13:50;4.63;;;2.60;;
59571;SDS011;70118;45.638;11.714;2023-06-10T01:16:21;4.93;;;3.05;;
59571;SDS011;70118;45.638;11.714;2023-06-10T01:18:47;5.07;;;2.73;;
59571;SDS011;70118;45.638;11.714;2023-06-10T01:21:20;5.13;;;2.92;;
59571;SDS011;70118;45.638;11.714;2023-06-10T01:23:50;4.78;;;2.70;;
59571;SDS011;70118;45.638;11.714;2023-06-10T01:26:18;5.97;;;3.95;;
59571;SDS011;70118;45.638;11.714;2023-06-10T01:28:48;7.73;;;5.57;;
59571;SDS011;70118;45.638;11.714;2023-06-10T01:31:31;5.00;;;2.90;;
59571;SDS011;70118;45.638;11.714;2023-06-10T01:33:59;6.63;;;4.20;;
59571;SDS011;70118;45.638;11.714;2023-06-10T01:36:27;6.07;;;3.92;;
59571;SDS011;70118;45.638;11.714;2023-06-10T01:38:54;10.07;;;7.40;;
59571;SDS011;70118;45.638;11.714;2023-06-10T01:41:21;11.17;;;8.57;;
59571;SDS011;70118;45.638;11.714;2023-06-10T01:43:48;10.27;;;8.23;;
59571;SDS011;70118;45.638;11.714;2023-06-10T01:46:15;7.35;;;4.90;;
59571;SDS011;70118;45.638;11.714;2023-06-10T01:48:45;8.48;;;6.07;;
59571;SDS011;70118;45.638;11.714;2023-06-10T01:51:11;7.75;;;5.25;;
59571;SDS011;70118;45.638;11.714;2023-06-10T01:53:37;9.60;;;6.53;;
59571;SDS011;70118;45.638;11.714;2023-06-10T01:56:03;9.05;;;7.15;;
59571;SDS011;70118;45.638;11.714;2023-06-10T01:58:29;12.20;;;9.27;;
59571;SDS011;70118;45.638;11.714;2023-06-10T02:00:55;11.27;;;9.00;;
59571;SDS011;70118;45.638;11.714;2023-06-10T02:03:21;10.13;;;8.33;;
59571;SDS011;70118;45.638;11.714;2023-06-10T02:05:47;11.13;;;8.70;;
59571;SDS011;70118;45.638;11.714;2023-06-10T02:08:14;12.02;;;9.18;;
59571;SDS011;70118;45.638;11.714;2023-06-10T02:10:40;9.93;;;8.18;;
59571;SDS011;70118;45.638;11.714;2023-06-10T02:13:06;13.80;;;10.25;;
59571;SDS011;70118;45.638;11.714;2023-06-10T02:15:32;8.73;;;6.30;;
59571;SDS011;70118;45.638;11.714;2023-06-10T02:17:59;10.13;;;8.10;;
59571;SDS011;70118;45.638;11.714;2023-06-10T02:20:25;9.68;;;7.28;;
59571;SDS011;70118;45.638;11.714;2023-06-10T02:22:52;13.00;;;9.57;;
59571;SDS011;70118;45.638;11.714;2023-06-10T02:25:18;11.45;;;9.45;;
59571;SDS011;70118;45.638;11.714;2023-06-10T02:27:44;11.83;;;8.30;;
59571;SDS011;70118;45.638;11.714;2023-06-10T02:30:10;13.70;;;10.43;;
59571;SDS011;70118;45.638;11.714;2023-06-10T02:32:36;12.82;;;10.43;;
59571;SDS011;70118;45.638;11.714;2023-06-10T02:35:02;13.73;;;10.20;;
59571;SDS011;70118;45.638;11.714;2023-06-10T02:37:29;10.27;;;8.02;;
59571;SDS011;70118;45.638;11.714;2023-06-10T02:39:55;8.90;;;6.30;;
59571;SDS011;70118;45.638;11.714;2023-06-10T02:42:21;11.68;;;8.20;;
59571;SDS011;70118;45.638;11.714;2023-06-10T02:44:47;11.32;;;7.88;;
59571;SDS011;70118;45.638;11.714;2023-06-10T02:47:13;8.07;;;6.20;;
59571;SDS011;70118;45.638;11.714;2023-06-10T02:49:38;9.80;;;6.87;;
59571;SDS011;70118;45.638;11.714;2023-06-10T02:52:05;5.55;;;3.50;;
59571;SDS011;70118;45.638;11.714;2023-06-10T02:54:32;7.53;;;4.88;;
59571;SDS011;70118;45.638;11.714;2023-06-10T02:56:58;10.18;;;7.53;;
59571;SDS011;70118;45.638;11.714;2023-06-10T02:59:24;11.00;;;7.77;;
59571;SDS011;70118;45.638;11.714;2023-06-10T03:01:52;7.90;;;5.13;;
59571;SDS011;70118;45.638;11.714;2023-06-10T03:04:19;7.57;;;5.57;;
59571;SDS011;70118;45.638;11.714;2023-06-10T03:06:46;8.25;;;5.78;;
59571;SDS011;70118;45.638;11.714;2023-06-10T03:09:12;8.23;;;5.90;;
59571;SDS011;70118;45.638;11.714;2023-06-10T03:11:38;5.40;;;3.20;;
59571;SDS011;70118;45.638;11.714;2023-06-10T03:14:04;6.47;;;4.18;;
59571;SDS011;70118;45.638;11.714;2023-06-10T03:16:30;9.80;;;6.55;;
59571;SDS011;70118;45.638;11.714;2023-06-10T03:18:56;6.30;;;3.80;;
59571;SDS011;70118;45.638;11.714;2023-06-10T03:21:22;6.53;;;4.67;;
59571;SDS011;70118;45.638;11.714;2023-06-10T03:23:48;6.75;;;4.07;;
59571;SDS011;70118;45.638;11.714;2023-06-10T03:26:14;5.88;;;3.83;;
59571;SDS011;70118;45.638;11.714;2023-06-10T03:28:41;6.30;;;3.88;;
59571;SDS011;70118;45.638;11.714;2023-06-10T03:31:07;4.80;;;3.00;;
59571;SDS011;70118;45.638;11.714;2023-06-10T03:33:33;4.73;;;2.50;;
59571;SDS011;70118;45.638;11.714;2023-06-10T03:35:59;5.55;;;2.85;;
59571;SDS011;70118;45.638;11.714;2023-06-10T03:38:25;5.70;;;3.53;;
59571;SDS011;70118;45.638;11.714;2023-06-10T03:40:50;5.43;;;3.08;;
59571;SDS011;70118;45.638;11.714;2023-06-10T03:43:16;5.43;;;2.90;;
59571;SDS011;70118;45.638;11.714;2023-06-10T03:45:42;5.70;;;3.13;;
59571;SDS011;70118;45.638;11.714;2023-06-10T03:48:08;5.40;;;3.65;;
59571;SDS011;70118;45.638;11.714;2023-06-10T03:50:36;5.07;;;3.10;;
59571;SDS011;70118;45.638;11.714;2023-06-10T03:53:02;4.68;;;3.05;;
59571;SDS011;70118;45.638;11.714;2023-06-10T03:55:28;5.75;;;3.35;;
59571;SDS011;70118;45.638;11.714;2023-06-10T03:57:54;6.63;;;4.13;;
59571;SDS011;70118;45.638;11.714;2023-06-10T04:00:20;8.65;;;5.57;;
59571;SDS011;70118;45.638;11.714;2023-06-10T04:02:47;7.33;;;4.10;;
59571;SDS011;70118;45.638;11.714;2023-06-10T04:05:18;8.65;;;5.68;;
59571;SDS011;70118;45.638;11.714;2023-06-10T04:07:48;9.43;;;6.18;;
59571;SDS011;70118;45.638;11.714;2023-06-10T04:10:14;9.43;;;7.40;;
59571;SDS011;70118;45.638;11.714;2023-06-10T04:12:41;8.82;;;5.82;;
59571;SDS011;70118;45.638;11.714;2023-06-10T04:15:07;8.83;;;5.87;;
59571;SDS011;70118;45.638;11.714;2023-06-10T04:17:34;7.50;;;5.40;;
59571;SDS011;70118;45.638;11.714;2023-06-10T04:20:00;8.50;;;6.15;;
59571;SDS011;70118;45.638;11.714;2023-06-10T04:22:26;9.57;;;6.45;;
59571;SDS011;70118;45.638;11.714;2023-06-10T04:24:52;8.82;;;6.20;;
59571;SDS011;70118;45.638;11.714;2023-06-10T04:27:18;8.03;;;5.17;;
59571;SDS011;70118;45.638;11.714;2023-06-10T04:29:44;6.38;;;3.75;;
59571;SDS011;70118;45.638;11.714;2023-06-10T04:32:10;7.32;;;4.90;;
59571;SDS011;70118;45.638;11.714;2023-06-10T04:34:36;9.57;;;6.60;;
59571;SDS011;70118;45.638;11.714;2023-06-10T04:37:05;6.83;;;4.70;;
59571;SDS011;70118;45.638;11.714;2023-06-10T04:39:31;5.90;;;3.75;;
59571;SDS011;70118;45.638;11.714;2023-06-10T04:41:59;7.60;;;5.40;;
59571;SDS011;70118;45.638;11.714;2023-06-10T04:44:25;8.18;;;6.03;;
59571;SDS011;70118;45.638;11.714;2023-06-10T04:46:51;8.90;;;6.40;;
59571;SDS011;70118;45.638;11.714;2023-06-10T04:49:17;10.27;;;7.70;;
59571;SDS011;70118;45.638;11.714;2023-06-10T04:51:43;8.80;;;6.38;;
59571;SDS011;70118;45.638;11.714;2023-06-10T04:54:09;5.40;;;2.97;;
59571;SDS011;70118;45.638;11.714;2023-06-10T04:56:35;4.80;;;2.90;;
59571;SDS011;70118;45.638;11.714;2023-06-10T04:59:02;4.78;;;2.40;;
59571;SDS011;70118;45.638;11.714;2023-06-10T05:01:28;7.72;;;4.90;;
59571;SDS011;70118;45.638;11.714;2023-06-10T05:03:53;7.57;;;3.88;;
59571;SDS011;70118;45.638;11.714;2023-06-10T05:06:19;8.43;;;5.63;;
59571;SDS011;70118;45.638;11.714;2023-06-10T05:08:45;6.07;;;3.90;;
59571;SDS011;70118;45.638;11.714;2023-06-10T05:11:12;5.70;;;3.75;;
59571;SDS011;70118;45.638;11.714;2023-06-10T05:13:38;8.07;;;5.93;;
59571;SDS011;70118;45.638;11.714;2023-06-10T05:16:05;11.40;;;8.27;;
59571;SDS011;70118;45.638;11.714;2023-06-10T05:18:32;13.45;;;8.65;;
59571;SDS011;70118;45.638;11.714;2023-06-10T05:20:58;10.68;;;7.97;;
59571;SDS011;70118;45.638;11.714;2023-06-10T05:23:24;11.10;;;7.57;;
59571;SDS011;70118;45.638;11.714;2023-06-10T05:25:50;7.43;;;4.88;;
59571;SDS011;70118;45.638;11.714;2023-06-10T05:28:16;6.75;;;3.83;;
59571;SDS011;70118;45.638;11.714;2023-06-10T05:30:43;4.85;;;2.72;;
59571;SDS011;70118;45.638;11.714;2023-06-10T05:33:09;7.17;;;5.10;;
59571;SDS011;70118;45.638;11.714;2023-06-10T05:35:35;4.95;;;2.70;;
59571;SDS011;70118;45.638;11.714;2023-06-10T05:38:02;4.85;;;2.58;;
59571;SDS011;70118;45.638;11.714;2023-06-10T05:40:28;5.05;;;2.75;;
59571;SDS011;70118;45.638;11.714;2023-06-10T05:42:54;9.75;;;5.53;;
59571;SDS011;70118;45.638;11.714;2023-06-10T05:45:19;9.90;;;6.87;;
59571;SDS011;70118;45.638;11.714;2023-06-10T05:47:45;10.02;;;7.40;;
59571;SDS011;70118;45.638;11.714;2023-06-10T05:50:11;6.53;;;4.10;;
59571;SDS011;70118;45.638;11.714;2023-06-10T05:52:37;8.97;;;5.37;;
59571;SDS011;70118;45.638;11.714;2023-06-10T05:55:05;8.38;;;5.65;;
59571;SDS011;70118;45.638;11.714;2023-06-10T05:57:32;5.35;;;3.30;;
59571;SDS011;70118;45.638;11.714;2023-06-10T05:59:57;5.63;;;3.22;;
59571;SDS011;70118;45.638;11.714;2023-06-10T06:02:24;7.07;;;5.03;;
59571;SDS011;70118;45.638;11.714;2023-06-10T06:04:50;4.93;;;3.00;;
59571;SDS011;70118;45.638;11.714;2023-06-10T06:07:15;6.72;;;2.90;;
59571;SDS011;70118;45.638;11.714;2023-06-10T06:09:42;5.22;;;3.38;;
59571;SDS011;70118;45.638;11.714;2023-06-10T06:12:08;6.67;;;3.90;;
59571;SDS011;70118;45.638;11.714;2023-06-10T06:14:38;7.27;;;4.70;;
59571;SDS011;70118;45.638;11.714;2023-06-10T06:17:05;8.18;;;5.05;;
59571;SDS011;70118;45.638;11.714;2023-06-10T06:19:31;7.95;;;5.18;;
59571;SDS011;70118;45.638;11.714;2023-06-10T06:21:57;8.40;;;5.82;;
59571;SDS011;70118;45.638;11.714;2023-06-10T06:24:23;9.50;;;5.87;;
59571;SDS011;70118;45.638;11.714;2023-06-10T06:26:49;7.63;;;5.63;;
59571;SDS011;70118;45.638;11.714;2023-06-10T06:29:15;7.28;;;5.20;;
59571;SDS011;70118;45.638;11.714;2023-06-10T06:31:41;8.00;;;6.00;;
59571;SDS011;70118;45.638;11.714;2023-06-10T06:34:07;8.87;;;5.70;;
59571;SDS011;70118;45.638;11.714;2023-06-10T06:36:33;6.97;;;4.82;;
59571;SDS011;70118;45.638;11.714;2023-06-10T06:38:59;7.28;;;4.32;;
59571;SDS011;70118;45.638;11.714;2023-06-10T06:41:28;7.77;;;4.40;;
59571;SDS011;70118;45.638;11.714;2023-06-10T06:43:54;6.77;;;4.20;;
59571;SDS011;70118;45.638;11.714;2023-06-10T06:46:20;6.97;;;4.50;;
59571;SDS011;70118;45.638;11.714;2023-06-10T06:48:47;6.18;;;4.05;;
59571;SDS011;70118;45.638;11.714;2023-06-10T06:51:13;6.63;;;4.68;;
59571;SDS011;70118;45.638;11.714;2023-06-10T06:53:40;7.57;;;4.55;;
59571;SDS011;70118;45.638;11.714;2023-06-10T06:56:13;6.80;;;4.70;;
59571;SDS011;70118;45.638;11.714;2023-06-10T06:58:39;6.30;;;4.07;;
59571;SDS011;70118;45.638;11.714;2023-06-10T07:01:05;6.13;;;4.30;;
59571;SDS011;70118;45.638;11.714;2023-06-10T07:03:31;7.13;;;3.80;;
59571;SDS011;70118;45.638;11.714;2023-06-10T07:05:57;5.95;;;4.13;;
59571;SDS011;70118;45.638;11.714;2023-06-10T07:08:23;6.27;;;3.50;;
59571;SDS011;70118;45.638;11.714;2023-06-10T07:10:49;9.18;;;4.13;;
59571;SDS011;70118;45.638;11.714;2023-06-10T07:13:15;7.75;;;5.22;;
59571;SDS011;70118;45.638;11.714;2023-06-10T07:15:41;8.20;;;5.03;;
59571;SDS011;70118;45.638;11.714;2023-06-10T07:18:07;6.32;;;4.20;;
59571;SDS011;70118;45.638;11.714;2023-06-10T07:20:33;8.40;;;4.20;;
59571;SDS011;70118;45.638;11.714;2023-06-10T07:22:58;8.47;;;4.30;;
59571;SDS011;70118;45.638;11.714;2023-06-10T07:25:24;8.65;;;5.32;;
59571;SDS011;70118;45.638;11.714;2023-06-10T07:27:50;8.02;;;5.47;;
59571;SDS011;70118;45.638;11.714;2023-06-10T07:30:16;7.22;;;5.32;;
59571;SDS011;70118;45.638;11.714;2023-06-10T07:32:42;9.20;;;7.33;;
59571;SDS011;70118;45.638;11.714;2023-06-10T07:35:09;6.82;;;4.57;;
59571;SDS011;70118;45.638;11.714;2023-06-10T07:37:36;7.22;;;4.35;;
59571;SDS011;70118;45.638;11.714;2023-06-10T07:40:03;5.82;;;3.45;;
59571;SDS011;70118;45.638;11.714;2023-06-10T07:42:31;6.00;;;3.92;;
59571;SDS011;70118;45.638;11.714;2023-06-10T07:44:58;6.87;;;4.33;;
59571;SDS011;70118;45.638;11.714;2023-06-10T07:47:24;8.32;;;5.07;;
59571;SDS011;70118;45.638;11.714;2023-06-10T07:49:49;6.63;;;4.33;;
59571;SDS011;70118;45.638;11.714;2023-06-10T07:52:15;6.82;;;4.43;;
59571;SDS011;70118;45.638;11.714;2023-06-10T07:54:41;6.50;;;3.85;;
59571;SDS011;70118;45.638;11.714;2023-06-10T07:57:07;6.60;;;3.57;;
59571;SDS011;70118;45.638;11.714;2023-06-10T07:59:33;7.30;;;4.93;;
59571;SDS011;70118;45.638;11.714;2023-06-10T08:01:59;8.13;;;5.60;;
59571;SDS011;70118;45.638;11.714;2023-06-10T08:04:25;7.53;;;4.47;;
59571;SDS011;70118;45.638;11.714;2023-06-10T08:06:50;8.82;;;5.45;;
59571;SDS011;70118;45.638;11.714;2023-06-10T08:09:16;8.60;;;4.80;;
59571;SDS011;70118;45.638;11.714;2023-06-10T08:11:43;8.55;;;5.97;;
59571;SDS011;70118;45.638;11.714;2023-06-10T08:14:11;6.05;;;3.90;;
59571;SDS011;70118;45.638;11.714;2023-06-10T08:16:37;8.48;;;3.67;;
59571;SDS011;70118;45.638;11.714;2023-06-10T08:19:03;7.10;;;4.17;;
59571;SDS011;70118;45.638;11.714;2023-06-10T08:21:29;8.52;;;5.40;;
59571;SDS011;70118;45.638;11.714;2023-06-10T08:23:55;9.43;;;6.82;;
59571;SDS011;70118;45.638;11.714;2023-06-10T08:26:21;12.77;;;7.97;;
59571;SDS011;70118;45.638;11.714;2023-06-10T08:28:47;8.63;;;5.78;;
59571;SDS011;70118;45.638;11.714;2023-06-10T08:31:13;9.43;;;5.78;;
59571;SDS011;70118;45.638;11.714;2023-06-10T08:33:39;8.48;;;5.88;;
59571;SDS011;70118;45.638;11.714;2023-06-10T08:36:06;7.87;;;5.57;;
59571;SDS011;70118;45.638;11.714;2023-06-10T08:38:32;8.43;;;4.68;;
59571;SDS011;70118;45.638;11.714;2023-06-10T08:40:59;7.53;;;4.82;;
59571;SDS011;70118;45.638;11.714;2023-06-10T08:43:32;8.02;;;5.18;;
59571;SDS011;70118;45.638;11.714;2023-06-10T08:46:03;8.05;;;5.43;;
59571;SDS011;70118;45.638;11.714;2023-06-10T08:48:29;10.20;;;6.47;;
59571;SDS011;70118;45.638;11.714;2023-06-10T08:50:57;7.72;;;4.65;;
59571;SDS011;70118;45.638;11.714;2023-06-10T08:53:23;8.48;;;4.47;;
59571;SDS011;70118;45.638;11.714;2023-06-10T08:55:51;12.10;;;6.35;;
59571;SDS011;70118;45.638;11.714;2023-06-10T08:58:18;8.82;;;5.47;;
59571;SDS011;70118;45.638;11.714;2023-06-10T09:00:45;8.37;;;5.27;;
59571;SDS011;70118;45.638;11.714;2023-06-10T09:03:12;10.50;;;6.05;;
59571;SDS011;70118;45.638;11.714;2023-06-10T09:05:38;10.02;;;6.40;;
59571;SDS011;70118;45.638;11.714;2023-06-10T09:08:07;10.05;;;6.63;;
59571;SDS011;70118;45.638;11.714;2023-06-10T09:10:34;8.88;;;6.13;;
59571;SDS011;70118;45.638;11.714;2023-06-10T09:13:00;10.47;;;6.67;;
59571;SDS011;70118;45.638;11.714;2023-06-10T09:15:26;12.77;;;7.75;;
59571;SDS011;70118;45.638;11.714;2023-06-10T09:17:53;9.82;;;6.43;;
59571;SDS011;70118;45.638;11.714;2023-06-10T09:20:19;9.57;;;5.80;;
59571;SDS011;70118;45.638;11.714;2023-06-10T09:22:45;10.30;;;6.93;;
59571;SDS011;70118;45.638;11.714;2023-06-10T09:25:11;8.52;;;5.40;;
59571;SDS011;70118;45.638;11.714;2023-06-10T09:27:48;8.70;;;5.78;;
59571;SDS011;70118;45.638;11.714;2023-06-10T09:30:33;9.35;;;6.25;;
59571;SDS011;70118;45.638;11.714;2023-06-10T09:33:01;9.88;;;5.50;;
59571;SDS011;70118;45.638;11.714;2023-06-10T09:35:29;9.07;;;5.10;;
59571;SDS011;70118;45.638;11.714;2023-06-10T09:37:57;10.23;;;6.30;;
59571;SDS011;70118;45.638;11.714;2023-06-10T09:40:24;9.43;;;5.40;;
59571;SDS011;70118;45.638;11.714;2023-06-10T09:42:54;8.93;;;6.32;;
59571;SDS011;70118;45.638;11.714;2023-06-10T09:45:21;7.45;;;4.15;;
59571;SDS011;70118;45.638;11.714;2023-06-10T09:47:56;8.47;;;5.37;;
59571;SDS011;70118;45.638;11.714;2023-06-10T09:50:22;9.40;;;6.65;;
59571;SDS011;70118;45.638;11.714;2023-06-10T09:52:49;9.65;;;6.80;;
59571;SDS011;70118;45.638;11.714;2023-06-10T09:55:16;11.05;;;7.90;;
59571;SDS011;70118;45.638;11.714;2023-06-10T09:57:43;11.57;;;7.40;;
59571;SDS011;70118;45.638;11.714;2023-06-10T10:00:13;10.97;;;7.43;;
59571;SDS011;70118;45.638;11.714;2023-06-10T10:02:44;14.68;;;9.00;;
59571;SDS011;70118;45.638;11.714;2023-06-10T10:05:15;12.65;;;8.68;;
59571;SDS011;70118;45.638;11.714;2023-06-10T10:07:43;11.75;;;7.88;;
59571;SDS011;70118;45.638;11.714;2023-06-10T10:10:10;9.88;;;6.80;;
59571;SDS011;70118;45.638;11.714;2023-06-10T10:12:38;12.73;;;7.90;;
59571;SDS011;70118;45.638;11.714;2023-06-10T10:15:08;11.25;;;7.90;;
59571;SDS011;70118;45.638;11.714;2023-06-10T10:17:46;14.60;;;9.73;;
59571;SDS011;70118;45.638;11.714;2023-06-10T10:20:18;15.02;;;9.63;;
59571;SDS011;70118;45.638;11.714;2023-06-10T10:22:47;12.52;;;8.73;;
59571;SDS011;70118;45.638;11.714;2023-06-10T10:25:23;9.83;;;7.03;;
59571;SDS011;70118;45.638;11.714;2023-06-10T10:27:51;15.18;;;9.15;;
59571;SDS011;70118;45.638;11.714;2023-06-10T10:30:22;12.65;;;8.85;;
59571;SDS011;70118;45.638;11.714;2023-06-10T10:35:23;13.15;;;8.75;;
59571;SDS011;70118;45.638;11.714;2023-06-10T10:37:53;11.93;;;7.40;;
59571;SDS011;70118;45.638;11.714;2023-06-10T10:40:20;9.85;;;6.50;;
59571;SDS011;70118;45.638;11.714;2023-06-10T10:42:50;12.88;;;9.18;;
59571;SDS011;70118;45.638;11.714;2023-06-10T10:45:17;11.18;;;8.07;;
59571;SDS011;70118;45.638;11.714;2023-06-10T10:47:46;11.75;;;8.73;;
59571;SDS011;70118;45.638;11.714;2023-06-10T10:50:19;12.63;;;9.87;;
59571;SDS011;70118;45.638;11.714;2023-06-10T10:52:54;16.60;;;10.98;;
59571;SDS011;70118;45.638;11.714;2023-06-10T10:55:27;13.90;;;9.82;;
59571;SDS011;70118;45.638;11.714;2023-06-10T10:58:03;12.93;;;9.10;;
59571;SDS011;70118;45.638;11.714;2023-06-10T11:00:32;13.82;;;10.20;;
59571;SDS011;70118;45.638;11.714;2023-06-10T11:03:08;13.03;;;9.70;;
59571;SDS011;70118;45.638;11.714;2023-06-10T11:05:42;16.38;;;11.40;;
59571;SDS011;70118;45.638;11.714;2023-06-10T11:10:58;13.70;;;10.15;;
59571;SDS011;70118;45.638;11.714;2023-06-10T11:13:25;15.52;;;10.32;;
59571;SDS011;70118;45.638;11.714;2023-06-10T11:15:52;12.93;;;9.20;;
59571;SDS011;70118;45.638;11.714;2023-06-10T11:18:26;14.15;;;9.57;;
59571;SDS011;70118;45.638;11.714;2023-06-10T11:21:00;14.65;;;10.93;;
59571;SDS011;70118;45.638;11.714;2023-06-10T11:26:09;11.90;;;8.60;;
59571;SDS011;70118;45.638;11.714;2023-06-10T11:31:23;11.52;;;8.98;;
59571;SDS011;70118;45.638;11.714;2023-06-10T11:33:53;13.05;;;9.80;;
59571;SDS011;70118;45.638;11.714;2023-06-10T11:36:24;12.60;;;9.15;;
59571;SDS011;70118;45.638;11.714;2023-06-10T11:38:53;13.00;;;9.90;;
59571;SDS011;70118;45.638;11.714;2023-06-10T11:41:26;12.75;;;9.27;;
59571;SDS011;70118;45.638;11.714;2023-06-10T11:43:54;17.33;;;12.13;;
59571;SDS011;70118;45.638;11.714;2023-06-10T11:46:23;15.07;;;10.88;;
59571;SDS011;70118;45.638;11.714;2023-06-10T11:48:54;12.05;;;8.63;;
59571;SDS011;70118;45.638;11.714;2023-06-10T11:51:21;15.53;;;11.77;;
59571;SDS011;70118;45.638;11.714;2023-06-10T11:53:47;14.27;;;9.90;;
59571;SDS011;70118;45.638;11.714;2023-06-10T11:56:19;13.02;;;10.30;;
59571;SDS011;70118;45.638;11.714;2023-06-10T11:58:49;12.07;;;8.98;;
59571;SDS011;70118;45.638;11.714;2023-06-10T12:01:23;14.35;;;9.82;;
59571;SDS011;70118;45.638;11.714;2023-06-10T12:04:08;13.60;;;10.13;;
59571;SDS011;70118;45.638;11.714;2023-06-10T12:09:13;12.40;;;9.40;;
59571;SDS011;70118;45.638;11.714;2023-06-10T12:11:43;11.70;;;8.93;;
59571;SDS011;70118;45.638;11.714;2023-06-10T12:14:09;12.95;;;10.13;;
59571;SDS011;70118;45.638;11.714;2023-06-10T12:16:35;14.07;;;10.77;;
59571;SDS011;70118;45.638;11.714;2023-06-10T12:19:05;12.25;;;8.75;;
59571;SDS011;70118;45.638;11.714;2023-06-10T12:21:32;13.93;;;9.10;;
59571;SDS011;70118;45.638;11.714;2023-06-10T12:24:04;11.60;;;8.77;;
59571;SDS011;70118;45.638;11.714;2023-06-10T12:29:38;13.15;;;9.20;;
59571;SDS011;70118;45.638;11.714;2023-06-10T12:31:59;9.73;;;6.82;;
59571;SDS011;70118;45.638;11.714;2023-06-10T12:34:38;10.23;;;7.60;;
59571;SDS011;70118;45.638;11.714;2023-06-10T12:37:06;11.23;;;7.38;;
59571;SDS011;70118;45.638;11.714;2023-06-10T12:39:38;11.57;;;8.27;;
59571;SDS011;70118;45.638;11.714;2023-06-10T12:42:05;12.55;;;8.55;;
59571;SDS011;70118;45.638;11.714;2023-06-10T12:44:40;14.50;;;9.23;;
59571;SDS011;70118;45.638;11.714;2023-06-10T12:47:07;11.02;;;7.85;;
59571;SDS011;70118;45.638;11.714;2023-06-10T12:49:35;12.45;;;9.38;;
59571;SDS011;70118;45.638;11.714;2023-06-10T12:52:02;12.07;;;8.13;;
59571;SDS011;70118;45.638;11.714;2023-06-10T12:54:28;10.10;;;7.80;;
59571;SDS011;70118;45.638;11.714;2023-06-10T12:56:55;9.70;;;7.65;;
59571;SDS011;70118;45.638;11.714;2023-06-10T12:59:21;9.35;;;7.10;;
59571;SDS011;70118;45.638;11.714;2023-06-10T13:01:50;9.07;;;7.07;;
59571;SDS011;70118;45.638;11.714;2023-06-10T13:04:17;9.38;;;6.53;;
59571;SDS011;70118;45.638;11.714;2023-06-10T13:06:43;10.63;;;7.22;;
59571;SDS011;70118;45.638;11.714;2023-06-10T13:09:09;11.68;;;8.50;;
59571;SDS011;70118;45.638;11.714;2023-06-10T13:11:35;11.57;;;8.50;;
59571;SDS011;70118;45.638;11.714;2023-06-10T13:14:02;9.70;;;7.47;;
59571;SDS011;70118;45.638;11.714;2023-06-10T13:16:32;12.13;;;7.88;;
59571;SDS011;70118;45.638;11.714;2023-06-10T13:18:58;10.43;;;7.20;;
59571;SDS011;70118;45.638;11.714;2023-06-10T13:21:26;10.70;;;7.18;;
59571;SDS011;70118;45.638;11.714;2023-06-10T13:23:52;10.30;;;7.50;;
59571;SDS011;70118;45.638;11.714;2023-06-10T13:26:18;10.70;;;7.68;;
59571;SDS011;70118;45.638;11.714;2023-06-10T13:28:44;12.07;;;7.53;;
59571;SDS011;70118;45.638;11.714;2023-06-10T13:31:10;9.47;;;6.67;;
59571;SDS011;70118;45.638;11.714;2023-06-10T13:33:36;10.55;;;7.07;;
59571;SDS011;70118;45.638;11.714;2023-06-10T13:36:02;9.75;;;6.35;;
59571;SDS011;70118;45.638;11.714;2023-06-10T13:38:28;9.95;;;6.47;;
59571;SDS011;70118;45.638;11.714;2023-06-10T13:40:54;9.00;;;5.90;;
59571;SDS011;70118;45.638;11.714;2023-06-10T13:43:19;12.35;;;7.38;;
59571;SDS011;70118;45.638;11.714;2023-06-10T13:45:45;8.87;;;6.20;;
59571;SDS011;70118;45.638;11.714;2023-06-10T13:48:11;9.90;;;6.57;;
59571;SDS011;70118;45.638;11.714;2023-06-10T13:50:38;10.60;;;6.53;;
59571;SDS011;70118;45.638;11.714;2023-06-10T13:53:04;9.75;;;6.80;;
59571;SDS011;70118;45.638;11.714;2023-06-10T13:55:30;13.00;;;8.00;;
59571;SDS011;70118;45.638;11.714;2023-06-10T13:57:55;9.43;;;6.25;;
59571;SDS011;70118;45.638;11.714;2023-06-10T14:00:21;7.53;;;5.30;;
59571;SDS011;70118;45.638;11.714;2023-06-10T14:02:47;8.97;;;5.97;;
59571;SDS011;70118;45.638;11.714;2023-06-10T14:05:13;9.50;;;6.37;;
59571;SDS011;70118;45.638;11.714;2023-06-10T14:07:39;10.35;;;6.40;;
59571;SDS011;70118;45.638;11.714;2023-06-10T14:10:06;9.38;;;6.10;;
59571;SDS011;70118;45.638;11.714;2023-06-10T14:12:33;10.90;;;5.93;;
59571;SDS011;70118;45.638;11.714;2023-06-10T14:15:00;11.20;;;5.87;;
59571;SDS011;70118;45.638;11.714;2023-06-10T14:17:26;11.43;;;6.68;;
59571;SDS011;70118;45.638;11.714;2023-06-10T14:19:52;12.65;;;6.70;;
59571;SDS011;70118;45.638;11.714;2023-06-10T14:22:18;10.43;;;6.78;;
59571;SDS011;70118;45.638;11.714;2023-06-10T14:24:44;10.50;;;6.60;;
59571;SDS011;70118;45.638;11.714;2023-06-10T14:27:10;10.32;;;6.60;;
59571;SDS011;70118;45.638;11.714;2023-06-10T14:29:35;10.70;;;6.40;;
59571;SDS011;70118;45.638;11.714;2023-06-10T14:32:01;12.45;;;6.97;;
59571;SDS011;70118;45.638;11.714;2023-06-10T14:34:27;9.65;;;5.90;;
59571;SDS011;70118;45.638;11.714;2023-06-10T14:36:55;10.32;;;5.90;;
59571;SDS011;70118;45.638;11.714;2023-06-10T14:39:21;9.60;;;5.67;;
59571;SDS011;70118;45.638;11.714;2023-06-10T14:41:47;9.82;;;6.38;;
59571;SDS011;70118;45.638;11.714;2023-06-10T14:44:13;10.55;;;6.30;;
59571;SDS011;70118;45.638;11.714;2023-06-10T14:46:39;11.23;;;6.40;;